Terminal Aerodrome Forecast
Issued by NWS

Home | Current Version | Previous Version | Text Only | Print | Product List | Glossary On
Versions: 1 2 3 4 5 6 7 8 9 10 11 12 13 14 15 16 17 18
000
FTUS41 KBTV 210811 AAA
TAFMPV
TAF AMD
KMPV 210811Z 2108/2206 00000KT 6SM BR SCT015
      TEMPO 2108/2110 5SM BR BKN015
     FM211000 00000KT 5SM BR OVC015
     FM211400 VRB02KT P6SM BKN015 OVC025
     FM220000 00000KT 5SM BR OVC010=

USA.gov is the U.S. government's official web portal to all federal, state and local government web resources and services.